Wilmington, North Carolina
Current Conditions -  °F | °C
As of 7:53 AM on Wednesday 22 Oct 2014 (Local Time) from KILM Reporting Station
Clear Clear  
Wind Chill: 51°   Ceiling: Unl
Heat Index: 51°   Visibility: 10mi
Dew Point: 43°   Wind: 8mph
Humidity: 74%   Direction: 320°NW
Pressure: 29.95"   Gusts: NA
Location:  34.24°N, 77.94°W
Report Text: KILM 221153Z 32007KT 10SM CLR 11/06 A2995 RMK AO2 SLP142 T01060061 10156 20100 53018
Loading
Personal Weather Stations






























Interactive Weather Map
Tropical Storm Tracking
New forecast layout! Learn more

10-Day Weather Forecast

Advertisements
Track Severe Weather on mobile